Time;durP1;ratioP1;P1;durP2;ratioP2;P2;SDS_P1;SDS_P2;PMS_P1;PMS_P2;Temp;Humidity;BMP_temperature;BMP_pressure;BME280_temperature;BME280_humidity;BME280_pressure;Samples;Min_cycle;Max_cycle;Signal;HPM_P1;HPM_P2
2024/01/14 00:00:57;;;;;;;18.55;10.68;;;;;;;3.70;78.79;101709.31;5020525;28;20487;-86
2024/01/14 00:03:23;;;;;;;17.65;9.98;;;;;;;3.48;78.63;101681.44;5011490;28;20042;-87
2024/01/14 00:05:48;;;;;;;18.55;10.18;;;;;;;3.81;78.93;101731.91;5027895;28;20037;-88
2024/01/14 00:08:15;;;;;;;20.90;11.18;;;;;;;3.59;78.74;101700.53;5017637;28;20037;-88
2024/01/14 00:10:42;;;;;;;18.27;9.77;;;;;;;3.59;78.34;101700.53;5024939;28;20033;-87
2024/01/14 00:13:09;;;;;;;19.77;10.82;;;;;;;3.64;78.52;101714.78;5022594;28;20058;-88
2024/01/14 00:15:36;;;;;;;19.50;10.52;;;;;;;3.71;78.34;101714.66;5031490;28;20186;-88
2024/01/14 00:18:03;;;;;;;18.38;10.15;;;;;;;3.68;78.65;101706.56;5000485;28;20626;-88
2024/01/14 00:20:28;;;;;;;19.23;10.55;;;;;;;3.59;78.97;101683.38;5020695;28;20063;-87
2024/01/14 00:22:54;;;;;;;20.13;10.73;;;;;;;3.60;78.52;101687.78;5012670;28;20498;-87
2024/01/14 00:25:21;;;;;;;18.63;10.23;;;;;;;3.57;78.58;101678.81;5013881;28;20033;-87
2024/01/14 00:27:50;;;;;;;17.77;10.15;;;;;;;3.54;78.34;101668.22;5029217;28;20026;-88
2024/01/14 00:30:17;;;;;;;18.45;10.80;;;;;;;3.43;78.72;101650.00;5009440;28;20040;-89
2024/01/14 00:32:44;;;;;;;18.50;10.45;;;;;;;3.42;78.61;101634.34;4994517;28;20506;-89
2024/01/14 00:35:09;;;;;;;19.63;10.65;;;;;;;3.69;78.85;101698.09;4998786;28;20514;-89
2024/01/14 00:37:37;;;;;;;18.23;10.30;;;;;;;3.76;78.89;101708.22;5009017;28;20030;-89
2024/01/14 00:40:07;;;;;;;19.92;10.68;;;;;;;3.49;78.74;101657.41;4994151;28;20487;-89
2024/01/14 00:42:37;;;;;;;17.38;10.07;;;;;;;3.33;78.86;101620.56;5008612;28;20035;-89
2024/01/14 00:45:03;;;;;;;20.33;10.50;;;;;;;3.59;78.81;101665.28;5014841;28;20022;-89
2024/01/14 00:47:33;;;;;;;17.67;10.40;;;;;;;3.43;78.80;101623.28;5009356;28;20060;-89
2024/01/14 00:49:59;;;;;;;19.58;11.00;;;;;;;3.58;78.15;101663.47;5006501;28;20034;-89
2024/01/14 00:52:28;;;;;;;18.15;10.77;;;;;;;3.60;78.42;101666.22;5008224;28;20042;-88
2024/01/14 00:54:54;;;;;;;22.27;11.38;;;;;;;3.44;78.27;101628.56;5003433;28;20065;-88
2024/01/14 00:57:21;;;;;;;20.02;10.30;;;;;;;3.60;78.25;101648.16;4999050;28;20483;-88
2024/01/14 00:59:47;;;;;;;20.48;10.75;;;;;;;3.76;78.40;101676.34;5015283;28;20490;-88
2024/01/14 01:02:12;;;;;;;21.05;10.70;;;;;;;3.03;78.63;101547.19;4995611;28;20087;-88
2024/01/14 01:04:39;;;;;;;19.58;10.95;;;;;;;3.43;78.40;101611.28;5009824;28;20038;-88
2024/01/14 01:07:05;;;;;;;19.83;10.88;;;;;;;3.38;78.67;101603.84;4999070;28;20026;-88
2024/01/14 01:09:31;;;;;;;20.02;10.57;;;;;;;3.27;78.41;101574.41;4993301;28;20034;-87
2024/01/14 01:11:58;;;;;;;18.83;10.88;;;;;;;3.49;78.64;101608.34;5006253;28;20029;-88
2024/01/14 01:14:28;;;;;;;17.77;9.90;;;;;;;3.51;78.63;101616.25;5019499;28;20116;-88
2024/01/14 01:16:54;;;;;;;18.85;10.52;;;;;;;3.43;78.39;101613.84;5012099;28;20231;-87
2024/01/14 01:19:20;;;;;;;18.50;10.55;;;;;;;3.34;78.74;101600.03;5010781;28;20039;-88
2024/01/14 01:21:47;;;;;;;18.05;10.00;;;;;;;3.56;78.68;101625.38;4994433;28;20034;-88
2024/01/14 01:24:15;;;;;;;20.02;10.90;;;;;;;3.55;78.84;101620.94;5006570;28;20057;-88
2024/01/14 01:26:42;;;;;;;19.58;11.13;;;;;;;3.15;78.28;101550.91;4998525;28;20034;-88
2024/01/14 01:29:07;;;;;;;19.33;11.13;;;;;;;3.55;78.44;101614.09;5010857;28;20475;-88
2024/01/14 01:31:33;;;;;;;18.52;10.02;;;;;;;3.41;78.17;101581.81;4990859;28;20057;-88
2024/01/14 01:33:59;;;;;;;18.00;10.48;;;;;;;3.30;78.82;101569.53;5007784;28;20079;-87
2024/01/14 01:36:28;;;;;;;17.27;9.88;;;;;;;3.23;78.82;101559.41;5013570;28;20071;-88
2024/01/14 01:38:54;;;;;;;21.48;11.52;;;;;;;3.22;78.60;101550.75;5003010;28;20467;-87
2024/01/14 01:41:22;;;;;;;19.15;10.80;;;;;;;3.50;78.53;101609.28;5024366;28;20507;-89
2024/01/14 01:43:47;;;;;;;18.88;10.98;;;;;;;3.16;78.16;101552.75;5000568;28;20072;-87
2024/01/14 01:46:14;;;;;;;17.92;10.15;;;;;;;3.61;78.63;101627.59;5019147;28;20048;-87
2024/01/14 01:48:40;;;;;;;20.67;11.32;;;;;;;2.91;78.14;101478.91;5014326;28;20134;-87
2024/01/14 01:51:06;;;;;;;19.48;10.65;;;;;;;3.37;78.50;101573.63;5004513;28;20072;-88
2024/01/14 01:53:32;;;;;;;18.88;10.65;;;;;;;3.28;78.34;101554.66;5019207;28;20044;-88
2024/01/14 01:55:58;;;;;;;17.73;10.13;;;;;;;3.23;78.39;101549.06;5015581;28;20428;-89
2024/01/14 01:58:23;;;;;;;18.17;10.75;;;;;;;3.15;78.32;101543.16;4994415;28;20621;-88
2024/01/14 02:00:50;;;;;;;17.77;10.55;;;;;;;3.16;78.62;101550.16;5004315;28;20045;-87
2024/01/14 02:03:15;;;;;;;;;;;;;;;3.61;78.43;101611.19;5030005;28;20065;-87
2024/01/14 02:05:42;;;;;;;17.05;9.93;;;;;;;3.55;78.74;101603.78;5028768;28;19920;-87
2024/01/14 02:08:08;;;;;;;17.70;10.25;;;;;;;3.39;78.92;101577.28;5029666;28;20025;-86
2024/01/14 02:10:34;;;;;;;19.98;11.35;;;;;;;3.51;78.76;101600.75;5016643;28;20041;-87
2024/01/14 02:13:00;;;;;;;19.75;10.75;;;;;;;3.23;78.48;101544.81;5004716;28;20042;-87
2024/01/14 02:15:27;;;;;;;17.33;10.32;;;;;;;3.22;78.61;101540.44;5009719;28;20044;-88
2024/01/14 02:17:53;;;;;;;19.70;10.90;;;;;;;3.53;78.27;101602.72;5014772;28;20034;-87
2024/01/14 02:20:19;;;;;;;19.75;10.10;;;;;;;3.15;78.41;101538.00;5011463;28;20036;-87
2024/01/14 02:22:48;;;;;;;18.05;10.10;;;;;;;3.32;78.49;101549.03;4999572;28;20056;-88
2024/01/14 02:25:16;;;;;;;17.08;10.18;;;;;;;3.37;78.41;101555.56;5023141;28;20486;-88
2024/01/14 02:27:42;;;;;;;19.33;10.73;;;;;;;3.32;78.62;101539.63;5027195;28;20029;-87
2024/01/14 02:30:09;;;;;;;20.05;10.63;;;;;;;3.58;78.12;101578.25;5018384;28;20025;-87
2024/01/14 02:32:38;;;;;;;17.88;9.90;;;;;;;3.40;78.15;101554.16;5022951;28;20034;-87
2024/01/14 02:35:05;;;;;;;18.40;9.82;;;;;;;3.19;78.65;101522.06;5005391;28;20029;-88
2024/01/14 02:37:32;;;;;;;17.92;10.00;;;;;;;3.54;78.53;101583.88;5001751;28;20029;-87
2024/01/14 02:39:59;;;;;;;19.75;11.10;;;;;;;3.27;78.55;101546.03;5015834;28;20021;-86
2024/01/14 02:42:25;;;;;;;17.35;10.38;;;;;;;3.22;78.16;101521.47;5014520;28;20029;-87
2024/01/14 02:44:50;;;;;;;17.73;9.90;;;;;;;3.42;78.75;101542.31;4997483;28;20044;-87
2024/01/14 02:47:20;;;;;;;19.17;10.32;;;;;;;3.30;78.29;101528.22;5027708;28;20025;-87
2024/01/14 02:49:47;;;;;;;19.60;10.40;;;;;;;3.28;78.44;101531.44;4989464;28;20040;-87
2024/01/14 02:52:14;;;;;;;17.73;9.93;;;;;;;3.51;78.29;101562.94;5019575;28;20049;-88
2024/01/14 02:54:39;;;;;;;17.35;9.90;;;;;;;3.02;78.01;101478.25;5021771;28;20037;-89
2024/01/14 02:57:05;;;;;;;19.35;9.95;;;;;;;3.36;78.38;101520.16;5026605;28;20041;-87
2024/01/14 02:59:32;;;;;;;19.25;10.50;;;;;;;3.02;78.54;101462.78;5000108;28;20446;-87
2024/01/14 03:01:58;;;;;;;17.52;10.10;;;;;;;3.18;78.72;101486.69;5019588;28;20033;-87
2024/01/14 03:04:24;;;;;;;19.65;10.52;;;;;;;3.31;78.50;101512.00;5038088;28;20030;-86
2024/01/14 03:06:49;;;;;;;18.85;10.23;;;;;;;3.50;78.39;101539.56;4994779;28;20045;-87
2024/01/14 03:09:15;;;;;;;17.02;9.73;;;;;;;2.90;78.21;101431.59;4995310;28;20025;-87
2024/01/14 03:11:42;;;;;;;18.45;9.55;;;;;;;3.34;78.13;101520.03;5029697;28;20788;-87
2024/01/14 03:14:08;;;;;;;17.52;9.63;;;;;;;2.91;77.98;101424.75;5030327;28;20026;-86
2024/01/14 03:16:33;;;;;;;17.70;10.00;;;;;;;3.46;78.51;101538.34;4995662;28;20030;-86
2024/01/14 03:18:59;;;;;;;17.35;9.77;;;;;;;3.11;77.93;101471.41;5016524;28;20545;-86
2024/01/14 03:21:26;;;;;;;15.27;9.60;;;;;;;3.24;78.55;101505.34;5003495;28;20029;-86
2024/01/14 03:23:51;;;;;;;19.15;9.98;;;;;;;2.93;78.46;101439.59;4983142;28;20083;-86
2024/01/14 03:26:17;;;;;;;17.13;10.00;;;;;;;3.05;78.23;101456.25;5014862;28;20499;-86
2024/01/14 03:28:43;;;;;;;17.77;10.25;;;;;;;2.89;77.94;101421.09;5008564;28;20407;-87
2024/01/14 03:31:13;;;;;;;16.05;9.65;;;;;;;2.99;77.93;101444.44;5005015;28;20043;-87
2024/01/14 03:33:39;;;;;;;19.15;10.00;;;;;;;3.06;77.69;101452.88;5012076;28;20170;-85
2024/01/14 03:36:05;;;;;;;21.05;11.05;;;;;;;3.53;77.49;101522.66;5003451;28;20508;-87
2024/01/14 03:38:31;;;;;;;17.60;9.75;;;;;;;2.91;77.07;101414.41;4986106;28;20487;-88
2024/01/14 03:40:56;;;;;;;18.98;10.35;;;;;;;3.09;77.50;101460.03;4998844;28;20029;-88
2024/01/14 03:43:28;;;;;;;17.75;9.65;;;;;;;3.47;77.56;101516.91;4997923;28;20041;-88
2024/01/14 03:45:54;;;;;;;20.70;11.30;;;;;;;3.13;77.53;101466.38;4996820;28;20022;-87
2024/01/14 03:48:19;;;;;;;19.85;10.18;;;;;;;3.31;77.21;101496.50;4999213;28;20037;-88
2024/01/14 03:50:49;;;;;;;20.60;11.05;;;;;;;3.57;77.42;101521.28;4995461;28;20108;-88
2024/01/14 03:53:33;;;;;;;16.45;9.60;;;;;;;3.51;77.38;101533.63;5124197;27;20406;-89
2024/01/14 03:55:59;;;;;;;18.20;10.07;;;;;;;3.15;77.70;101473.50;5085225;28;20034;-88
2024/01/14 03:58:24;;;;;;;17.33;9.80;;;;;;;3.35;77.32;101503.78;5099742;28;20031;-88
2024/01/14 04:00:53;;;;;;;17.50;10.38;;;;;;;3.35;76.75;101484.81;5087609;28;20562;-88
2024/01/14 04:03:23;;;;;;;18.65;10.18;;;;;;;3.51;77.33;101533.63;5088003;28;20562;-89
2024/01/14 04:05:49;;;;;;;17.50;9.80;;;;;;;3.08;76.78;101446.97;5089814;28;20485;-89
2024/01/14 04:08:19;;;;;;;18.67;10.32;;;;;;;3.45;76.71;101521.97;5107307;28;20077;-91
2024/01/14 04:10:46;;;;;;;18.55;10.32;;;;;;;2.99;77.14;101436.69;5091072;28;20081;-89
2024/01/14 04:13:15;;;;;;;18.80;10.90;;;;;;;3.08;77.40;101471.09;5086084;28;20039;-89
2024/01/14 04:15:42;;;;;;;18.98;10.48;;;;;;;3.42;77.32;101519.06;5080822;28;20035;-88
2024/01/14 04:18:09;;;;;;;17.13;10.05;;;;;;;2.92;76.93;101430.06;5106215;28;20031;-88
2024/01/14 04:20:36;;;;;;;17.25;9.85;;;;;;;3.12;77.17;101470.63;5107500;28;20059;-87
2024/01/14 04:23:02;;;;;;;18.25;10.77;;;;;;;2.83;77.13;101412.00;5100786;28;20448;-88
2024/01/14 04:25:27;;;;;;;17.67;10.27;;;;;;;2.72;77.02;101401.44;5106701;28;20088;-88
2024/01/14 04:27:53;;;;;;;16.65;9.77;;;;;;;3.30;76.99;101506.69;5127054;28;20489;-86
2024/01/14 04:30:19;;;;;;;18.92;10.05;;;;;;;3.36;77.57;101521.06;5110795;28;20084;-86
2024/01/14 04:32:44;;;;;;;19.23;10.13;;;;;;;3.17;77.21;101477.13;5104120;28;20145;-87
2024/01/14 04:35:10;;;;;;;18.58;10.43;;;;;;;3.24;77.26;101491.53;5089161;28;20085;-87
2024/01/14 04:37:36;;;;;;;19.02;10.48;;;;;;;3.10;77.15;101458.34;5106939;28;20898;-87
2024/01/14 04:40:02;;;;;;;16.17;9.65;;;;;;;3.12;77.02;101478.38;5104553;28;20510;-86
2024/01/14 04:42:28;;;;;;;17.83;9.95;;;;;;;3.17;77.62;101479.69;5105999;28;20169;-89
2024/01/14 04:44:54;;;;;;;18.10;10.10;;;;;;;3.10;77.67;101463.53;5090033;28;20020;-88
2024/01/14 04:47:20;;;;;;;17.10;9.88;;;;;;;3.02;77.46;101463.69;5105629;28;20481;-89
2024/01/14 04:49:46;;;;;;;18.65;10.25;;;;;;;3.30;77.67;101507.59;5089517;28;20027;-89
2024/01/14 04:52:14;;;;;;;19.20;9.80;;;;;;;2.98;77.54;101455.50;5105499;28;20067;-87
2024/01/14 04:54:45;;;;;;;19.30;9.63;;;;;;;3.26;77.62;101506.41;5104656;28;20024;-88
2024/01/14 05:04:35;;;;;;;16.92;9.73;;;;;;;3.23;77.66;101492.28;5093312;28;20035;-87
2024/01/14 05:07:01;;;;;;;17.33;9.18;;;;;;;2.99;77.61;101442.75;5095050;28;20044;-88
2024/01/14 05:09:27;;;;;;;19.88;10.40;;;;;;;3.17;77.34;101468.47;5088243;28;20058;-87
2024/01/14 05:11:52;;;;;;;17.42;9.73;;;;;;;2.82;77.20;101392.16;5088763;28;20036;-85
2024/01/14 05:14:19;;;;;;;17.65;10.00;;;;;;;2.83;77.67;101416.25;5080451;28;20409;-88
2024/01/14 05:16:44;;;;;;;17.40;9.57;;;;;;;2.87;77.69;101431.28;5071294;28;20051;-88
2024/01/14 05:19:10;;;;;;;17.45;10.05;;;;;;;3.15;77.24;101455.41;5089989;28;20036;-90
2024/01/14 05:21:37;;;;;;;16.42;9.70;;;;;;;2.68;77.25;101381.28;5087138;28;20028;-91
2024/01/14 05:24:03;;;;;;;17.08;9.60;;;;;;;2.71;77.27;101403.13;5082077;28;20122;-87
2024/01/14 05:26:29;;;;;;;17.08;10.43;;;;;;;3.25;77.22;101496.81;5083969;28;20144;-87
2024/01/14 05:28:59;;;;;;;18.52;10.30;;;;;;;2.96;76.95;101450.19;5080406;28;20079;-87
2024/01/14 05:31:26;;;;;;;16.52;9.98;;;;;;;3.13;77.50;101479.28;5071290;28;20093;-90
2024/01/14 05:33:53;;;;;;;16.25;9.70;;;;;;;3.02;77.48;101465.34;5084772;28;20114;-87
2024/01/14 05:36:19;;;;;;;16.88;9.90;;;;;;;3.15;77.29;101478.66;5090360;28;20566;-86
2024/01/14 05:38:45;;;;;;;16.98;9.57;;;;;;;2.43;77.32;101358.31;5100804;28;20032;-87
2024/01/14 05:41:13;;;;;;;17.52;9.95;;;;;;;2.76;77.39;101417.34;5085661;28;20043;-86
2024/01/14 05:43:46;;;;;;;17.92;10.07;;;;;;;2.90;77.05;101428.06;5064835;28;20062;-91
2024/01/14 05:46:15;;;;;;;17.13;9.75;;;;;;;2.99;77.27;101457.34;5080816;28;20395;-88
2024/01/14 05:48:41;;;;;;;17.73;10.05;;;;;;;2.57;77.50;101398.31;5082875;28;20024;-88
2024/01/14 05:51:07;;;;;;;17.27;9.68;;;;;;;3.02;77.58;101473.09;5094008;28;20512;-88
2024/01/14 05:53:32;;;;;;;19.60;10.85;;;;;;;2.80;77.44;101413.41;5068370;28;20158;-87
2024/01/14 05:55:58;;;;;;;17.85;9.60;;;;;;;2.60;77.58;101386.63;5083223;28;20032;-88
2024/01/14 05:58:24;;;;;;;18.38;10.48;;;;;;;2.58;77.70;101390.75;5084942;28;20051;-87
2024/01/14 06:00:50;;;;;;;18.20;10.57;;;;;;;2.77;77.81;101423.41;5087596;28;20037;-86
2024/01/14 06:03:15;;;;;;;16.70;9.82;;;;;;;3.10;78.11;101484.16;5070886;28;20035;-87
2024/01/14 06:05:42;;;;;;;16.40;9.52;;;;;;;2.92;77.72;101452.34;5099427;28;20638;-87
2024/01/14 06:08:08;;;;;;;16.17;9.93;;;;;;;2.73;78.17;101427.41;5070585;28;20074;-86
2024/01/14 06:10:33;;;;;;;17.92;10.10;;;;;;;2.86;77.72;101442.38;5083902;28;20122;-87
2024/01/14 06:12:59;;;;;;;18.25;10.25;;;;;;;2.71;78.08;101426.34;5072064;28;20496;-87
2024/01/14 06:15:25;;;;;;;17.08;10.02;;;;;;;3.14;77.80;101502.66;5085213;28;20056;-87
2024/01/14 06:17:51;;;;;;;18.77;10.35;;;;;;;2.94;77.55;101463.72;5081146;28;20777;-87
2024/01/14 06:20:17;;;;;;;20.50;10.93;;;;;;;2.76;77.40;101440.56;5077182;28;20032;-87
2024/01/14 06:22:42;;;;;;;19.65;10.55;;;;;;;3.01;77.47;101473.88;5087909;28;20081;-87
2024/01/14 06:25:08;;;;;;;18.55;9.73;;;;;;;2.95;76.99;101448.38;5080644;28;20382;-87
2024/01/14 06:27:34;;;;;;;20.27;10.70;;;;;;;3.13;76.88;101471.53;5064583;28;20080;-86
2024/01/14 06:30:01;;;;;;;18.95;10.32;;;;;;;2.97;76.46;101436.53;5083455;28;20514;-87
2024/01/14 06:32:26;;;;;;;21.50;11.07;;;;;;;3.03;76.55;101446.56;5089102;28;20084;-87
2024/01/14 06:34:52;;;;;;;20.70;10.95;;;;;;;3.12;76.97;101483.53;5106797;28;20063;-89
2024/01/14 06:37:18;;;;;;;19.63;10.52;;;;;;;2.73;77.12;101424.81;5069918;28;20518;-89
2024/01/14 06:39:44;;;;;;;19.77;10.98;;;;;;;2.63;77.15;101397.22;5074565;28;20047;-89
2024/01/14 06:42:10;;;;;;;19.80;10.82;;;;;;;2.30;76.36;101327.00;5084878;28;20059;-89
2024/01/14 06:44:39;;;;;;;19.50;11.73;;;;;;;3.16;76.91;101490.81;5065592;28;20035;-89
2024/01/14 06:47:06;;;;;;;29.95;13.48;;;;;;;2.99;77.11;101462.50;5084126;28;20068;-88
2024/01/14 06:49:32;;;;;;;25.92;12.90;;;;;;;2.79;77.69;101440.84;5072197;28;20409;-88
2024/01/14 06:51:58;;;;;;;23.85;12.65;;;;;;;2.27;77.55;101331.84;5083403;28;20055;-87
2024/01/14 06:54:23;;;;;;;26.67;13.68;;;;;;;2.55;77.02;101382.69;5071689;28;20104;-87
2024/01/14 06:56:49;;;;;;;24.08;12.15;;;;;;;2.93;77.11;101465.38;5084785;28;20103;-87
2024/01/14 06:59:21;;;;;;;22.10;12.05;;;;;;;2.67;78.09;101426.81;5082278;28;20051;-85
2024/01/14 07:01:47;;;;;;;24.50;12.32;;;;;;;2.67;77.55;101442.28;5097620;27;20043;-85
2024/01/14 07:04:13;;;;;;;23.02;11.93;;;;;;;2.89;77.60;101465.84;5085595;28;20032;-87
2024/01/14 07:06:39;;;;;;;23.17;12.55;;;;;;;2.69;76.78;101408.88;5086739;28;20043;-87
2024/01/14 07:09:13;;;;;;;21.92;12.25;;;;;;;2.45;77.15;101382.56;5079771;28;20035;-88
2024/01/14 07:11:39;;;;;;;22.60;11.82;;;;;;;2.85;77.85;101461.16;5083770;27;20129;-87
2024/01/14 07:14:15;;;;;;;22.13;11.55;;;;;;;2.20;78.28;101346.72;5067491;28;20059;-89
2024/01/14 07:17:09;;;;;;;20.33;11.50;;;;;;;2.82;77.60;101440.25;5108014;27;20038;-88
2024/01/14 07:20:02;;;;;;;19.65;11.48;;;;;;;3.07;77.02;101487.38;5088790;28;20073;-87
2024/01/14 07:22:30;;;;;;;22.50;12.63;;;;;;;2.21;77.27;101332.16;5095649;27;20040;-87
2024/01/14 07:25:08;;;;;;;22.95;12.15;;;;;;;3.07;77.43;101484.78;5063592;28;20879;-87
2024/01/14 07:27:51;;;;;;;21.88;11.88;;;;;;;2.94;77.38;101448.22;5086926;28;21656;-88
2024/01/14 07:30:18;;;;;;;22.10;12.05;;;;;;;2.80;76.99;101422.03;5066650;28;20379;-87
2024/01/14 07:33:06;;;;;;;19.20;10.88;;;;;;;2.40;77.21;101328.00;5085982;28;20033;-87
2024/01/14 07:35:32;;;;;;;21.02;11.90;;;;;;;2.60;77.26;101376.31;5086959;28;20051;-87
2024/01/14 07:37:58;;;;;;;23.20;12.45;;;;;;;2.76;76.91;101380.34;5079836;28;20418;-86
2024/01/14 07:40:27;;;;;;;21.67;11.93;;;;;;;2.33;76.65;101310.16;5085239;28;20159;-86
2024/01/14 07:42:53;;;;;;;21.85;11.85;;;;;;;2.89;76.40;101390.16;5082017;28;20115;-87
2024/01/14 07:45:19;;;;;;;21.13;11.40;;;;;;;2.74;76.74;101387.03;5063124;28;20119;-87
2024/01/14 07:47:45;;;;;;;20.85;11.55;;;;;;;2.80;77.41;101421.16;5078903;28;20124;-88
2024/01/14 07:50:11;;;;;;;20.38;11.48;;;;;;;2.85;77.18;101417.31;5079514;28;20032;-86
2024/01/14 07:52:37;;;;;;;20.02;11.32;;;;;;;3.04;77.41;101448.34;5085474;28;20058;-87
2024/01/14 07:55:05;;;;;;;19.00;11.13;;;;;;;2.49;76.46;101327.06;5085184;28;20028;-90
2024/01/14 07:57:31;;;;;;;19.77;11.38;;;;;;;2.85;76.62;101389.84;5086103;28;20757;-86
2024/01/14 08:00:04;;;;;;;20.38;11.02;;;;;;;3.19;76.56;101454.06;5086242;28;20039;-91
2024/01/14 08:02:31;;;;;;;21.73;11.80;;;;;;;2.93;77.25;101421.53;5081291;28;20036;-89
2024/01/14 08:04:57;;;;;;;20.40;11.07;;;;;;;2.74;77.02;101361.25;5064670;28;20033;-89
2024/01/14 08:07:23;;;;;;;20.02;10.77;;;;;;;2.80;76.64;101370.47;5084998;28;20093;-89
2024/01/14 08:09:49;;;;;;;19.70;10.43;;;;;;;2.81;77.37;101399.72;5085317;28;20486;-88
2024/01/14 08:12:15;;;;;;;18.70;10.63;;;;;;;2.77;77.34;101401.13;5065267;28;20170;-89
2024/01/14 08:14:40;;;;;;;20.58;10.93;;;;;;;2.84;77.41;101421.56;5083835;28;20501;-88
2024/01/14 08:17:06;;;;;;;21.73;11.00;;;;;;;3.14;76.97;101437.25;5081080;28;20055;-87
2024/01/14 08:19:32;;;;;;;20.42;11.27;;;;;;;3.00;76.55;101389.47;5085584;28;20040;-88
2024/01/14 08:21:58;;;;;;;20.17;11.60;;;;;;;2.66;76.35;101334.72;5067455;28;20028;-89
2024/01/14 08:24:24;;;;;;;21.48;11.82;;;;;;;3.16;76.67;101417.66;5087835;28;20025;-87
2024/01/14 08:26:51;;;;;;;23.92;11.95;;;;;;;2.77;76.45;101353.78;5096070;28;20028;-88
2024/01/14 08:29:18;;;;;;;20.05;11.40;;;;;;;2.94;76.48;101371.78;5086922;28;20046;-88
2024/01/14 08:31:44;;;;;;;21.13;10.95;;;;;;;2.60;76.46;101323.81;5084932;28;20093;-89
2024/01/14 08:34:10;;;;;;;20.77;11.32;;;;;;;2.64;77.02;101336.25;5083989;28;20463;-88
2024/01/14 08:36:36;;;;;;;20.92;11.30;;;;;;;3.15;77.18;101410.66;5082170;28;20098;-89
2024/01/14 08:39:18;;;;;;;;;;;;;;;3.16;76.92;101418.53;5090799;28;20085;-90
2024/01/14 08:41:44;;;;;;;20.20;10.50;;;;;;;2.90;77.12;101380.00;5086549;28;20408;-88
2024/01/14 08:44:14;;;;;;;20.25;11.52;;;;;;;3.09;77.13;101428.13;5090385;28;20032;-90
2024/01/14 08:46:40;;;;;;;23.48;12.20;;;;;;;2.78;77.75;101394.31;5074973;28;20124;-91
2024/01/14 08:49:07;;;;;;;23.83;12.25;;;;;;;2.87;78.01;101402.00;5071137;28;20033;-91
2024/01/14 08:51:33;;;;;;;23.55;11.95;;;;;;;2.90;77.59;101374.84;5069738;28;20032;-90
2024/01/14 08:54:01;;;;;;;21.27;11.80;;;;;;;2.66;77.37;101327.00;5089645;28;20020;-88
2024/01/14 08:56:28;;;;;;;24.80;13.15;;;;;;;2.73;76.60;101313.94;5087813;28;20028;-89
2024/01/14 08:58:56;;;;;;;22.38;11.98;;;;;;;2.84;76.98;101325.25;5089841;28;20028;-90
2024/01/14 09:01:21;;;;;;;23.60;12.65;;;;;;;3.05;76.95;101383.09;5077827;28;20035;-82
2024/01/14 09:03:53;;;;;;;26.48;12.77;;;;;;;2.95;76.98;101383.91;5093735;28;20024;-92
2024/01/14 09:06:19;;;;;;;24.60;13.13;;;;;;;2.89;76.24;101315.34;5071936;28;20131;-90
2024/01/14 09:08:44;;;;;;;25.08;12.95;;;;;;;3.07;76.37;101335.13;5086002;28;20141;-88
2024/01/14 09:11:10;;;;;;;25.15;13.35;;;;;;;3.18;76.39;101373.16;5085400;28;20416;-91
2024/01/14 09:13:36;;;;;;;29.70;14.27;;;;;;;2.89;76.71;101325.66;5090946;28;20490;-91
2024/01/14 09:16:06;;;;;;;25.00;13.48;;;;;;;3.03;76.89;101371.72;5087664;28;20028;-90
2024/01/14 09:18:32;;;;;;;25.42;13.48;;;;;;;2.59;77.18;101294.56;5073413;28;20493;-91
2024/01/14 09:21:04;;;;;;;27.85;13.88;;;;;;;2.57;77.13;101297.78;5072984;28;20023;-91
2024/01/14 09:23:31;;;;;;;27.00;13.98;;;;;;;2.37;77.70;101271.03;5073304;28;20093;-87
2024/01/14 09:25:59;;;;;;;26.52;14.10;;;;;;;2.53;77.50;101275.94;5071838;28;20478;-90
2024/01/14 09:28:29;;;;;;;27.60;14.27;;;;;;;2.72;77.48;101308.63;5074360;28;20587;-92
2024/01/14 09:30:55;;;;;;;27.10;14.38;;;;;;;2.87;77.06;101306.56;5093556;28;20471;-88
2024/01/14 09:33:22;;;;;;;28.10;14.63;;;;;;;2.29;77.33;101235.00;5092583;28;20043;-89
2024/01/14 09:35:48;;;;;;;27.10;14.13;;;;;;;2.70;77.05;101307.56;5080556;28;20111;-90
2024/01/14 09:38:13;;;;;;;29.67;14.75;;;;;;;2.50;77.34;101267.94;5091198;28;20015;-90
2024/01/14 09:40:41;;;;;;;25.38;13.52;;;;;;;3.09;77.00;101341.34;5100093;28;20020;-91
2024/01/14 09:43:11;;;;;;;26.30;14.52;;;;;;;2.96;76.63;101316.03;5095499;28;20088;-92
2024/01/14 09:45:41;;;;;;;26.23;13.93;;;;;;;3.11;76.56;101328.56;5102828;28;20062;-92
2024/01/14 09:48:15;;;;;;;29.73;14.30;;;;;;;2.77;77.02;101313.44;5088456;28;20066;-91
2024/01/14 09:50:41;;;;;;;27.88;13.98;;;;;;;2.96;77.05;101304.81;5082689;28;20024;-92
2024/01/14 09:53:11;;;;;;;29.75;14.85;;;;;;;2.83;76.32;101269.25;5091895;28;20631;-88
2024/01/14 09:55:38;;;;;;;28.98;14.13;;;;;;;3.01;76.23;101286.44;5067412;28;20039;-91
2024/01/14 09:58:06;;;;;;;27.73;14.85;;;;;;;3.18;76.18;101295.72;5070327;28;20024;-92
2024/01/14 10:00:32;;;;;;;27.42;14.10;;;;;;;3.22;76.11;101295.25;5074467;28;20631;-90
2024/01/14 10:03:10;;;;;;;;;;;;;;;3.24;76.36;101293.72;5072815;28;20056;-91
2024/01/14 10:05:38;;;;;;;26.48;13.60;;;;;;;3.03;75.97;101260.78;5065255;28;20041;-90
2024/01/14 10:08:16;;;;;;;29.02;14.27;;;;;;;3.25;75.75;101286.88;5073331;28;20036;-90
2024/01/14 10:10:50;;;;;;;28.42;15.02;;;;;;;2.98;75.19;101231.97;5091111;28;20528;-90
2024/01/14 10:13:17;;;;;;;29.60;14.88;;;;;;;3.14;76.24;101256.59;5072416;28;20608;-91
2024/01/14 10:15:43;;;;;;;26.02;14.13;;;;;;;3.02;76.10;101236.63;5076301;28;20412;-91
2024/01/14 10:18:10;;;;;;;27.80;15.13;;;;;;;3.18;75.36;101231.22;5070059;28;20032;-90
2024/01/14 10:20:38;;;;;;;27.75;14.75;;;;;;;3.20;75.43;101231.38;5068686;28;20040;-89
2024/01/14 10:23:04;;;;;;;27.27;14.68;;;;;;;3.15;75.07;101227.44;5086289;28;20032;-89
2024/01/14 10:25:34;;;;;;;27.42;14.45;;;;;;;2.98;76.36;101210.44;5084932;28;20044;-90
2024/01/14 10:28:08;;;;;;;28.38;14.75;;;;;;;3.09;75.82;101222.66;5073437;28;20511;-91
2024/01/14 10:30:45;;;;;;;28.00;14.13;;;;;;;3.22;76.41;101238.47;5090335;28;20484;-91
2024/01/14 10:33:11;;;;;;;30.52;14.73;;;;;;;2.88;75.99;101193.22;5068725;28;20055;-91
2024/01/14 10:35:38;;;;;;;29.95;15.00;;;;;;;2.63;76.60;101153.97;5069133;28;20549;-90
2024/01/14 10:38:07;;;;;;;26.92;14.13;;;;;;;2.89;76.66;101186.38;5087198;28;20524;-89
2024/01/14 10:40:34;;;;;;;30.38;15.50;;;;;;;2.55;76.27;101136.88;5089594;28;20139;-89
2024/01/14 10:43:02;;;;;;;28.33;15.13;;;;;;;3.00;76.24;101188.25;5064850;28;20375;-88
2024/01/14 10:45:27;;;;;;;29.08;15.18;;;;;;;3.04;76.14;101180.03;5071292;28;20089;-88
2024/01/14 10:47:57;;;;;;;26.90;14.65;;;;;;;3.02;76.24;101164.41;5085410;28;20497;-87
2024/01/14 10:50:26;;;;;;;26.98;14.52;;;;;;;3.08;75.81;101170.91;5103734;27;20028;-87
2024/01/14 10:52:55;;;;;;;26.33;14.35;;;;;;;2.79;75.57;101107.25;5083663;28;20524;-87
2024/01/14 10:55:45;;;;;;;29.35;15.27;;;;;;;3.36;75.77;101185.50;5086392;28;20111;-87
2024/01/14 10:58:25;;;;;;;29.67;14.70;;;;;;;3.23;75.87;101159.38;5086782;28;20040;-88
2024/01/14 11:00:51;;;;;;;28.00;14.55;;;;;;;3.39;75.49;101180.63;5071297;28;20509;-88
2024/01/14 11:03:18;;;;;;;27.52;14.48;;;;;;;2.89;75.77;101117.63;5084404;28;20052;-86
2024/01/14 11:05:44;;;;;;;28.27;14.77;;;;;;;3.03;75.80;101155.91;5085473;28;20170;-90
2024/01/14 11:08:16;;;;;;;28.10;14.93;;;;;;;2.89;76.15;101115.06;5088470;28;20521;-88
2024/01/14 11:10:43;;;;;;;26.42;13.90;;;;;;;2.70;75.80;101086.72;5087861;28;20071;-88
2024/01/14 11:13:16;;;;;;;28.50;15.15;;;;;;;3.18;76.20;101179.59;5082822;27;20024;-88
2024/01/14 11:16:05;;;;;;;26.88;14.13;;;;;;;3.26;75.59;101182.88;5088563;28;20093;-89
2024/01/14 11:18:35;;;;;;;29.90;14.05;;;;;;;2.97;76.12;101123.50;5080892;28;20040;-89
2024/01/14 11:21:43;;;;;;;26.80;14.55;;;;;;;3.30;75.80;101178.88;5065144;28;20401;-88
2024/01/14 11:24:10;;;;;;;28.67;14.52;;;;;;;3.16;76.14;101175.97;5086455;28;20031;-89
2024/01/14 11:26:37;;;;;;;27.88;14.60;;;;;;;2.57;76.64;101097.59;5080760;28;20032;-89
2024/01/14 11:29:04;;;;;;;28.02;15.30;;;;;;;3.16;76.57;101167.34;5083907;28;20032;-87